createdAt,value
2019-01-04T00:01:38.208Z,13.60
2019-01-04T00:04:12.251Z,12.13
2019-01-04T00:06:44.608Z,13.13
2019-01-04T00:09:12.752Z,13.90
2019-01-04T00:11:40.818Z,14.00
2019-01-04T00:14:08.820Z,13.07
2019-01-04T00:16:38.072Z,13.50
2019-01-04T00:19:06.091Z,13.30
2019-01-04T00:21:34.125Z,12.63
2019-01-04T00:24:04.053Z,13.43
2019-01-04T00:26:33.475Z,14.90
2019-01-04T00:29:01.705Z,14.97
2019-01-04T00:31:30.990Z,15.00
2019-01-04T00:34:01.222Z,16.73
2019-01-04T00:36:32.022Z,15.53
2019-01-04T00:39:02.362Z,16.00
2019-01-04T00:41:30.424Z,14.50
2019-01-04T00:43:58.422Z,13.70
2019-01-04T00:46:26.465Z,15.50
2019-01-04T00:48:57.298Z,16.37
2019-01-04T00:51:27.862Z,16.77
2019-01-04T00:54:04.487Z,16.97
2019-01-04T00:57:03.043Z,17.67
2019-01-04T01:00:48.908Z,17.20
2019-01-04T01:04:23.281Z,16.87
2019-01-04T01:08:01.423Z,18.63
2019-01-04T01:11:51.007Z,17.53
2019-01-04T01:14:57.976Z,16.90
2019-01-04T01:18:41.561Z,17.67
2019-01-04T01:21:55.223Z,15.90
2019-01-04T01:29:20.509Z,17.37
2019-01-04T01:32:39.935Z,18.07
2019-01-04T01:36:05.470Z,16.43
2019-01-04T01:39:39.583Z,17.57
2019-01-04T01:43:28.544Z,15.93
2019-01-04T01:46:49.564Z,16.20
2019-01-04T01:50:45.345Z,17.03
2019-01-04T01:53:16.344Z,16.80
2019-01-04T01:55:45.598Z,16.00
2019-01-04T01:58:13.668Z,17.00
2019-01-04T02:00:41.770Z,17.03
2019-01-04T02:03:10.015Z,17.50
2019-01-04T02:05:39.808Z,16.80
2019-01-04T02:08:12.515Z,16.80
2019-01-04T02:10:40.551Z,19.10
2019-01-04T02:13:08.875Z,18.80
2019-01-04T02:15:36.767Z,17.13
2019-01-04T02:18:07.024Z,19.73
2019-01-04T02:20:36.456Z,17.37
2019-01-04T02:23:04.392Z,20.90
2019-01-04T02:25:37.999Z,19.57
2019-01-04T02:28:26.639Z,19.83
2019-01-04T02:30:54.664Z,21.17
2019-01-04T02:33:25.184Z,20.70
2019-01-04T02:36:00.929Z,20.50
2019-01-04T02:38:29.148Z,20.63
2019-01-04T02:40:57.247Z,20.30
2019-01-04T02:43:25.671Z,21.10
2019-01-04T02:45:53.823Z,19.20
2019-01-04T02:48:21.724Z,20.03
2019-01-04T02:50:49.761Z,21.10
2019-01-04T02:53:17.736Z,20.47
2019-01-04T02:55:45.791Z,20.37
2019-01-04T02:58:13.919Z,20.90
2019-01-04T03:00:41.965Z,20.20
2019-01-04T03:03:10.023Z,20.80
2019-01-04T03:05:38.126Z,21.20
2019-01-04T03:08:06.150Z,24.13
2019-01-04T03:10:34.041Z,21.70
2019-01-04T03:13:03.843Z,20.67
2019-01-04T03:15:34.534Z,19.60
2019-01-04T03:18:04.915Z,21.07
2019-01-04T03:20:32.887Z,20.57
2019-01-04T03:23:01.018Z,20.97
2019-01-04T03:25:31.509Z,20.50
2019-01-04T03:28:00.935Z,18.80
2019-01-04T03:30:30.630Z,19.57
2019-01-04T03:32:58.629Z,19.50
2019-01-04T03:35:26.562Z,16.77
2019-01-04T03:37:55.604Z,18.90
2019-01-04T03:40:23.604Z,18.83
2019-01-04T03:42:54.394Z,18.90
2019-01-04T03:45:22.408Z,18.13
2019-01-04T03:47:50.465Z,17.00
2019-01-04T03:50:18.572Z,16.33
2019-01-04T03:52:46.506Z,17.73
2019-01-04T03:55:14.618Z,16.30
2019-01-04T03:57:42.778Z,16.50
2019-01-04T04:00:10.682Z,18.20
2019-01-04T04:02:38.728Z,17.13
2019-01-04T04:05:06.949Z,16.60
2019-01-04T04:07:34.808Z,16.80
2019-01-04T04:10:02.776Z,15.97
2019-01-04T04:12:30.832Z,14.50
2019-01-04T04:14:58.725Z,15.43
2019-01-04T04:17:26.612Z,13.10
2019-01-04T04:19:54.649Z,13.90
2019-01-04T04:22:22.533Z,14.47
2019-01-04T04:24:50.505Z,13.00
2019-01-04T04:27:18.538Z,14.40
2019-01-04T04:29:46.600Z,12.27
2019-01-04T04:32:15.551Z,11.90
2019-01-04T04:34:43.435Z,12.00
2019-01-04T04:37:12.457Z,9.60
2019-01-04T04:39:42.806Z,8.97
2019-01-04T04:42:13.477Z,8.83
2019-01-04T04:44:41.455Z,9.37
2019-01-04T04:47:12.516Z,8.80
2019-01-04T04:49:40.619Z,7.90
2019-01-04T04:52:11.348Z,6.37
2019-01-04T04:54:39.575Z,6.40
2019-01-04T04:57:07.704Z,6.77
2019-01-04T04:59:38.556Z,6.63
2019-01-04T05:02:06.468Z,5.80
2019-01-04T05:04:34.368Z,6.40
2019-01-04T05:07:05.032Z,6.00
2019-01-04T05:09:34.331Z,6.97
2019-01-04T05:12:05.311Z,6.17
2019-01-04T05:14:36.378Z,5.60
2019-01-04T05:17:06.178Z,5.30
2019-01-04T05:19:34.351Z,4.70
2019-01-04T05:22:03.442Z,4.43
2019-01-04T05:24:31.443Z,4.70
2019-01-04T05:26:59.523Z,3.70
2019-01-04T05:29:32.306Z,3.77
2019-01-04T05:32:00.440Z,3.90
2019-01-04T05:34:35.970Z,5.07
2019-01-04T05:37:04.017Z,4.00
2019-01-04T05:39:32.090Z,3.77
2019-01-04T05:42:03.331Z,5.70
2019-01-04T05:44:31.189Z,6.27
2019-01-04T05:47:00.455Z,6.00
2019-01-04T05:49:30.225Z,6.60
2019-01-04T05:51:58.160Z,7.97
2019-01-04T05:54:26.054Z,9.70
2019-01-04T05:56:54.182Z,13.53
2019-01-04T05:59:22.187Z,13.50
2019-01-04T06:01:50.126Z,14.77
2019-01-04T06:04:18.032Z,17.07
2019-01-04T06:06:45.918Z,19.37
2019-01-04T06:09:14.091Z,19.63
2019-01-04T06:11:42.076Z,21.47
2019-01-04T06:14:09.979Z,22.70
2019-01-04T06:16:37.969Z,24.00
2019-01-04T06:19:05.815Z,22.73
2019-01-04T06:21:33.885Z,24.37
2019-01-04T06:24:01.955Z,23.87
2019-01-04T06:26:29.809Z,30.17
2019-01-04T06:28:57.916Z,28.23
2019-01-04T06:31:25.748Z,28.50
2019-01-04T06:33:54.171Z,28.27
2019-01-04T06:36:22.641Z,28.93
2019-01-04T06:38:50.514Z,28.53
2019-01-04T06:41:18.542Z,29.23
2019-01-04T06:43:46.565Z,28.87
2019-01-04T06:46:14.459Z,27.30
2019-01-04T06:48:42.490Z,28.70
2019-01-04T06:51:10.363Z,28.70
2019-01-04T06:53:38.210Z,27.80
2019-01-04T06:56:07.198Z,29.10
2019-01-04T06:58:35.323Z,27.63
2019-01-04T07:01:03.475Z,27.33
2019-01-04T07:03:31.416Z,26.83
2019-01-04T07:05:59.387Z,25.37
2019-01-04T07:08:27.284Z,25.80
2019-01-04T07:10:55.281Z,26.83
2019-01-04T07:13:23.300Z,24.20
2019-01-04T07:15:51.321Z,24.60
2019-01-04T07:18:19.434Z,23.77
2019-01-04T07:20:47.395Z,24.57
2019-01-04T07:23:15.473Z,24.33
2019-01-04T07:25:43.334Z,23.63
2019-01-04T07:28:11.331Z,22.40
2019-01-04T07:30:39.259Z,23.17
2019-01-04T07:33:07.115Z,22.00
2019-01-04T07:35:34.970Z,20.97
2019-01-04T07:38:03.036Z,20.63
2019-01-04T07:40:31.048Z,18.87
2019-01-04T07:43:01.882Z,17.60
2019-01-04T07:45:29.940Z,16.60
2019-01-04T07:47:57.785Z,16.43
2019-01-04T07:50:25.643Z,15.63
2019-01-04T07:52:53.765Z,14.40
2019-01-04T07:55:21.605Z,13.90
2019-01-04T07:57:49.614Z,14.00
2019-01-04T08:00:17.764Z,13.17
2019-01-04T08:02:47.928Z,13.43
2019-01-04T08:05:18.942Z,13.13
2019-01-04T08:07:46.875Z,13.33
2019-01-04T08:10:14.778Z,12.00
2019-01-04T08:12:42.767Z,11.60
2019-01-04T08:15:10.908Z,12.50
2019-01-04T08:17:38.886Z,11.73
2019-01-04T08:20:07.804Z,11.53
2019-01-04T08:22:35.754Z,11.23
2019-01-04T08:25:04.316Z,11.37
2019-01-04T08:27:32.384Z,11.93
2019-01-04T08:30:00.203Z,13.20
2019-01-04T08:32:28.142Z,12.50
2019-01-04T08:34:56.288Z,12.90
2019-01-04T08:37:24.355Z,13.30
2019-01-04T08:39:52.428Z,13.53
2019-01-04T08:42:20.473Z,15.13
2019-01-04T08:44:48.509Z,13.33
2019-01-04T08:47:18.260Z,13.77
2019-01-04T08:49:46.240Z,14.20
2019-01-04T08:52:14.094Z,14.93
2019-01-04T08:54:42.124Z,15.60
2019-01-04T08:57:10.118Z,14.53
2019-01-04T08:59:38.138Z,16.80
2019-01-04T09:02:07.241Z,16.30
2019-01-04T09:04:35.213Z,15.00
2019-01-04T09:07:03.175Z,17.70
2019-01-04T09:09:31.231Z,17.90
2019-01-04T09:11:59.201Z,18.00
2019-01-04T09:14:27.218Z,18.73
2019-01-04T09:16:55.213Z,19.60
2019-01-04T09:19:23.077Z,20.30
2019-01-04T09:21:51.093Z,19.10
2019-01-04T09:24:18.929Z,20.03
2019-01-04T09:26:47.584Z,20.80
2019-01-04T09:29:18.661Z,23.37
2019-01-04T09:31:46.862Z,23.57
2019-01-04T09:34:14.782Z,18.77
2019-01-04T09:36:42.803Z,19.20
2019-01-04T09:39:10.725Z,18.60
2019-01-04T09:42:17.267Z,19.10
2019-01-04T09:44:45.778Z,20.27
2019-01-04T09:47:13.666Z,19.10
2019-01-04T09:49:41.657Z,19.10
2019-01-04T09:52:09.785Z,18.70
2019-01-04T09:54:37.740Z,21.33
2019-01-04T09:57:05.686Z,17.90
2019-01-04T09:59:33.510Z,19.90
2019-01-04T10:02:01.442Z,19.90
2019-01-04T10:04:29.443Z,20.80
2019-01-04T10:06:57.432Z,17.80
2019-01-04T10:09:25.586Z,21.77
2019-01-04T10:11:56.275Z,20.27
2019-01-04T10:14:24.236Z,21.50
2019-01-04T10:16:52.253Z,22.30
2019-01-04T10:19:20.155Z,24.33
2019-01-04T10:21:47.976Z,27.37
2019-01-04T10:24:15.996Z,30.13
2019-01-04T10:26:43.925Z,32.37
2019-01-04T10:29:14.074Z,33.43
2019-01-04T10:31:42.190Z,36.60
2019-01-04T10:34:10.049Z,32.90
2019-01-04T10:36:38.107Z,34.30
2019-01-04T10:39:07.780Z,33.80
2019-01-04T10:41:35.719Z,35.20
2019-01-04T10:44:05.921Z,35.23
2019-01-04T10:46:33.975Z,36.37
2019-01-04T10:49:01.823Z,34.77
2019-01-04T10:51:29.847Z,32.97
2019-01-04T10:53:57.906Z,34.80
2019-01-04T10:56:25.729Z,37.00
2019-01-04T10:58:54.183Z,34.27
2019-01-04T11:01:22.303Z,34.70
2019-01-04T11:03:50.177Z,35.37
2019-01-04T11:06:18.176Z,35.10
2019-01-04T11:08:46.125Z,30.27
2019-01-04T11:11:16.383Z,31.70
2019-01-04T11:13:44.262Z,32.70
2019-01-04T11:16:12.165Z,31.97
2019-01-04T11:18:40.233Z,32.20
2019-01-04T11:21:11.557Z,30.23
2019-01-04T11:24:32.463Z,30.97
2019-01-04T11:27:11.694Z,31.63
2019-01-04T11:30:33.969Z,28.93
2019-01-04T11:34:07.201Z,30.87
2019-01-04T11:37:16.642Z,31.30
2019-01-04T11:41:12.730Z,33.47
2019-01-04T11:44:32.952Z,32.70
2019-01-04T11:47:39.922Z,29.40
2019-01-04T11:51:18.107Z,29.43
2019-01-04T11:53:45.980Z,30.83
2019-01-04T11:56:13.903Z,29.07
2019-01-04T11:58:41.853Z,30.97
2019-01-04T12:01:09.721Z,29.03
2019-01-04T12:03:37.863Z,30.53
2019-01-04T12:06:05.890Z,31.20
2019-01-04T12:08:33.823Z,29.77
2019-01-04T12:11:01.823Z,31.10
2019-01-04T12:13:29.868Z,28.60
2019-01-04T12:15:57.774Z,28.63
2019-01-04T12:18:25.802Z,27.60
2019-01-04T12:20:53.806Z,28.43
2019-01-04T12:23:21.685Z,28.47
2019-01-04T12:25:49.761Z,28.93
2019-01-04T12:28:17.723Z,29.20
2019-01-04T12:30:45.756Z,27.47
2019-01-04T12:33:13.798Z,29.00
2019-01-04T12:35:41.687Z,28.70
2019-01-04T12:38:09.504Z,30.23
2019-01-04T12:40:37.506Z,29.40
2019-01-04T12:43:05.556Z,27.20
2019-01-04T12:45:33.526Z,28.27
2019-01-04T12:48:01.458Z,27.27
2019-01-04T12:50:29.422Z,27.70
2019-01-04T12:52:57.364Z,25.30
2019-01-04T12:55:25.254Z,27.03
2019-01-04T12:57:53.271Z,26.80
2019-01-04T13:00:21.196Z,29.23
2019-01-04T13:02:49.053Z,28.20
2019-01-04T13:05:17.078Z,29.17
2019-01-04T13:07:45.065Z,28.50
2019-01-04T13:10:15.094Z,27.60
2019-01-04T13:12:43.103Z,28.40
2019-01-04T13:15:11.529Z,29.47
2019-01-04T13:17:41.181Z,27.93
2019-01-04T13:20:09.503Z,28.17
2019-01-04T13:22:37.506Z,29.00
2019-01-04T13:25:06.164Z,26.77
2019-01-04T13:27:35.248Z,28.60
2019-01-04T13:30:06.523Z,24.53
2019-01-04T13:32:34.690Z,28.23
2019-01-04T13:35:09.190Z,25.77
2019-01-04T13:37:46.166Z,27.70
2019-01-04T13:40:19.268Z,29.00
2019-01-04T13:42:47.313Z,27.90
2019-01-04T13:45:25.506Z,26.33
2019-01-04T13:47:55.651Z,25.53
2019-01-04T13:50:30.473Z,25.67
2019-01-04T13:53:09.395Z,25.93
2019-01-04T13:55:41.858Z,26.00
2019-01-04T13:58:14.198Z,27.57
2019-01-04T14:00:43.335Z,29.00
2019-01-04T14:03:12.457Z,27.97
2019-01-04T14:05:48.173Z,29.50
2019-01-04T14:08:19.553Z,29.13
2019-01-04T14:10:47.459Z,27.90
2019-01-04T14:13:39.894Z,26.23
2019-01-04T14:16:16.226Z,26.60
2019-01-04T14:18:46.695Z,26.77
2019-01-04T14:21:14.742Z,29.40
2019-01-04T14:23:45.913Z,28.57
2019-01-04T14:26:18.195Z,28.10
2019-01-04T14:28:50.626Z,29.87
2019-01-04T14:31:19.311Z,30.90
2019-01-04T14:33:50.442Z,30.40
2019-01-04T14:36:20.549Z,31.33
2019-01-04T14:38:52.991Z,30.63
2019-01-04T14:41:24.417Z,30.47
2019-01-04T14:43:56.293Z,34.43
2019-01-04T14:46:29.414Z,30.50
2019-01-04T14:49:03.018Z,32.70
2019-01-04T14:51:40.454Z,31.03
2019-01-04T14:54:10.941Z,30.80
2019-01-04T14:56:45.833Z,30.00
2019-01-04T14:59:26.640Z,31.27
2019-01-04T15:01:58.109Z,30.87
2019-01-04T15:04:26.379Z,31.23
2019-01-04T15:06:58.295Z,30.70
2019-01-04T15:09:31.372Z,30.77
2019-01-04T15:11:59.507Z,31.37
2019-01-04T15:14:31.995Z,32.00
2019-01-04T15:17:06.759Z,31.10
2019-01-04T15:19:37.785Z,30.00
2019-01-04T15:22:08.718Z,30.63
2019-01-04T15:24:36.546Z,30.80
2019-01-04T15:27:12.861Z,29.37
2019-01-04T15:29:40.965Z,29.47
2019-01-04T15:32:13.573Z,28.33
2019-01-04T15:34:44.723Z,27.30
2019-01-04T15:37:13.953Z,28.20
2019-01-04T15:39:56.112Z,28.90
2019-01-04T15:42:24.003Z,29.90
2019-01-04T15:45:06.844Z,30.97
2019-01-04T15:47:37.471Z,32.00
2019-01-04T15:50:09.411Z,30.30
2019-01-04T15:52:38.425Z,30.03
2019-01-04T15:55:30.872Z,32.10
2019-01-04T15:58:01.829Z,29.97
2019-01-04T16:00:37.252Z,31.17
2019-01-04T16:03:10.525Z,30.67
2019-01-04T16:05:53.903Z,30.50
2019-01-04T16:08:24.761Z,28.67
2019-01-04T16:10:53.949Z,28.10
2019-01-04T16:13:31.096Z,29.73
2019-01-04T16:16:04.828Z,30.47
2019-01-04T16:18:32.817Z,30.53
2019-01-04T16:21:06.306Z,31.73
2019-01-04T16:23:37.519Z,30.40
2019-01-04T16:26:32.210Z,32.90
2019-01-04T16:29:03.162Z,29.83
2019-01-04T16:31:32.873Z,31.93
2019-01-04T16:34:05.227Z,31.63
2019-01-04T16:36:37.755Z,29.63
2019-01-04T16:39:21.806Z,30.27
2019-01-04T16:41:51.995Z,28.67
2019-01-04T16:44:32.472Z,30.57
2019-01-04T16:47:03.518Z,30.20
2019-01-04T16:49:37.197Z,32.60
2019-01-04T16:52:05.670Z,33.33
2019-01-04T16:54:34.445Z,34.47
2019-01-04T16:57:06.053Z,34.97
2019-01-04T16:59:33.967Z,35.67
2019-01-04T17:02:04.946Z,33.37
2019-01-04T17:04:43.119Z,35.57
2019-01-04T17:07:11.104Z,32.50
2019-01-04T17:09:57.663Z,36.17
2019-01-04T17:12:29.168Z,36.37
2019-01-04T17:14:57.636Z,34.67
2019-01-04T17:17:25.802Z,34.97
2019-01-04T17:19:57.695Z,36.03
2019-01-04T17:22:25.680Z,35.90
2019-01-04T17:24:56.476Z,37.53
2019-01-04T17:27:24.698Z,33.60
2019-01-04T17:29:52.619Z,36.70
2019-01-04T17:32:20.738Z,36.40
2019-01-04T17:34:48.663Z,34.50
2019-01-04T17:37:16.649Z,35.27
2019-01-04T17:39:44.664Z,34.00
2019-01-04T17:42:12.676Z,33.50
2019-01-04T17:44:40.563Z,33.77
2019-01-04T17:47:08.441Z,35.30
2019-01-04T17:49:36.448Z,33.23
2019-01-04T17:52:04.461Z,34.10
2019-01-04T17:54:32.328Z,35.33
2019-01-04T17:57:00.455Z,35.40
2019-01-04T17:59:28.319Z,33.93
2019-01-04T18:01:56.140Z,32.40
2019-01-04T18:04:24.114Z,34.60
2019-01-04T18:06:52.002Z,33.67
2019-01-04T18:09:22.502Z,33.30
2019-01-04T18:11:50.674Z,34.03
2019-01-04T18:14:18.720Z,34.13
2019-01-04T18:16:46.871Z,33.50
2019-01-04T18:19:14.787Z,33.10
2019-01-04T18:21:42.647Z,33.80
2019-01-04T18:24:10.759Z,32.80
2019-01-04T18:26:38.656Z,36.90
2019-01-04T18:29:06.840Z,32.80
2019-01-04T18:31:34.979Z,35.60
2019-01-04T18:34:02.824Z,33.40
2019-01-04T18:36:30.834Z,35.33
2019-01-04T18:38:58.945Z,36.17
2019-01-04T18:41:27.045Z,33.70
2019-01-04T18:43:55.008Z,34.00
2019-01-04T18:46:22.834Z,30.40
2019-01-04T18:48:51.206Z,28.10
2019-01-04T18:51:19.511Z,28.73
2019-01-04T18:53:47.471Z,26.93
2019-01-04T18:56:15.400Z,25.53
2019-01-04T18:58:43.192Z,26.90
2019-01-04T19:01:13.748Z,25.23
2019-01-04T19:03:41.789Z,25.23
2019-01-04T19:06:09.729Z,23.80
2019-01-04T19:08:37.537Z,25.23
2019-01-04T19:11:05.684Z,22.77
2019-01-04T19:13:34.106Z,21.20
2019-01-04T19:16:02.069Z,19.97
2019-01-04T19:18:30.008Z,19.20
2019-01-04T19:20:58.093Z,17.90
2019-01-04T19:23:26.104Z,17.23
2019-01-04T19:25:54.059Z,16.87
2019-01-04T19:28:22.080Z,15.67
2019-01-04T19:30:50.099Z,11.50
2019-01-04T19:33:21.939Z,10.03
2019-01-04T19:35:49.843Z,10.00
2019-01-04T19:38:17.762Z,9.17
2019-01-04T19:40:45.575Z,9.60
2019-01-04T19:43:13.325Z,10.40
2019-01-04T19:45:41.211Z,9.03
2019-01-04T19:48:10.282Z,11.00
2019-01-04T19:50:38.115Z,9.93
2019-01-04T19:53:06.172Z,10.57
2019-01-04T19:55:34.042Z,11.03
2019-01-04T19:58:02.040Z,10.83
2019-01-04T20:00:29.893Z,11.30
2019-01-04T20:02:57.805Z,9.00
2019-01-04T20:06:05.066Z,8.40
2019-01-04T20:09:53.343Z,8.40
2019-01-04T20:13:43.187Z,10.83
2019-01-04T20:16:58.513Z,10.60
2019-01-04T20:20:02.041Z,9.80
2019-01-04T20:22:58.788Z,9.40
2019-01-04T20:25:45.100Z,9.47
2019-01-04T20:28:32.307Z,9.80
2019-01-04T20:31:20.059Z,9.70
2019-01-04T20:34:06.655Z,8.10
2019-01-04T20:36:52.940Z,10.33
2019-01-04T20:39:46.716Z,11.03
2019-01-04T20:42:36.851Z,11.13
2019-01-04T20:45:27.455Z,11.50
2019-01-04T20:48:20.811Z,11.10
2019-01-04T20:51:12.336Z,13.30
2019-01-04T20:53:54.421Z,15.30
2019-01-04T20:56:45.223Z,17.23
2019-01-04T20:59:31.216Z,20.40
2019-01-04T21:02:17.352Z,18.17
2019-01-04T21:05:03.673Z,13.77
2019-01-04T21:07:49.979Z,13.33
2019-01-04T21:10:45.518Z,13.00
2019-01-04T21:13:35.888Z,13.90
2019-01-04T21:16:36.066Z,12.73
2019-01-04T21:19:22.712Z,12.20
2019-01-04T21:22:02.485Z,13.37
2019-01-04T21:24:56.071Z,13.40
2019-01-04T21:27:42.511Z,14.53
2019-01-04T21:30:48.143Z,16.50
2019-01-04T21:33:34.425Z,12.67
2019-01-04T21:36:25.028Z,11.20
2019-01-04T21:39:11.452Z,13.00
2019-01-04T21:41:57.623Z,12.20
2019-01-04T21:45:00.098Z,12.83
2019-01-04T21:47:51.837Z,12.57
2019-01-04T21:50:38.527Z,11.50
2019-01-04T21:53:24.507Z,11.33
2019-01-04T21:56:20.754Z,12.73
2019-01-04T21:59:20.938Z,9.90
2019-01-04T22:02:07.029Z,11.50
2019-01-04T22:05:12.635Z,10.33
2019-01-04T22:08:00.177Z,8.67
2019-01-04T22:10:46.306Z,10.30
2019-01-04T22:13:33.806Z,10.20
2019-01-04T22:16:23.179Z,8.60
2019-01-04T22:19:12.102Z,8.50
2019-01-04T22:22:08.471Z,8.03
2019-01-04T22:24:51.409Z,8.40
2019-01-04T22:27:37.674Z,9.20
2019-01-04T22:30:25.756Z,8.60
2019-01-04T22:33:11.825Z,9.40
2019-01-04T22:36:12.627Z,8.60
2019-01-04T22:38:58.852Z,8.67
2019-01-04T22:42:01.777Z,8.80
2019-01-04T22:45:07.724Z,7.60
2019-01-04T22:47:47.275Z,6.20
2019-01-04T22:50:35.078Z,6.17
2019-01-04T22:53:25.538Z,6.00
2019-01-04T22:56:26.517Z,4.33
2019-01-04T22:59:14.027Z,5.07
2019-01-04T23:02:11.069Z,3.87
2019-01-04T23:05:14.004Z,4.20
2019-01-04T23:08:00.568Z,4.67
2019-01-04T23:10:46.827Z,3.03
2019-01-04T23:13:28.333Z,4.60
2019-01-04T23:16:18.977Z,3.97
2019-01-04T23:19:08.011Z,3.20
2019-01-04T23:22:35.545Z,3.20
2019-01-04T23:25:22.345Z,3.60
2019-01-04T23:28:09.313Z,4.47
2019-01-04T23:31:03.029Z,3.20
2019-01-04T23:33:49.379Z,3.80
2019-01-04T23:36:50.652Z,3.77
2019-01-04T23:39:41.042Z,2.80
2019-01-04T23:42:37.277Z,3.67
2019-01-04T23:45:43.092Z,3.30
2019-01-04T23:48:36.666Z,3.70
2019-01-04T23:51:33.622Z,3.40
2019-01-04T23:54:32.940Z,4.53
2019-01-04T23:57:21.150Z,4.17
